createdAt,value
2022-08-08T00:00:52.901Z,39.30
2022-08-08T00:02:33.855Z,39.50
2022-08-08T00:04:48.945Z,38.23
2022-08-08T00:07:12.504Z,36.86
2022-08-08T00:09:22.357Z,36.49
2022-08-08T00:11:46.790Z,36.07
2022-08-08T00:14:15.692Z,36.03
2022-08-08T00:16:28.881Z,35.71
2022-08-08T00:18:40.794Z,35.55
2022-08-08T00:20:50.725Z,35.28
2022-08-08T00:22:58.013Z,35.41
2022-08-08T00:25:06.184Z,35.27
2022-08-08T00:27:14.098Z,35.56
2022-08-08T00:29:44.802Z,35.63
2022-08-08T00:32:28.513Z,36.19
2022-08-08T00:35:04.757Z,36.48
2022-08-08T00:37:47.443Z,36.67
2022-08-08T00:41:08.926Z,36.42
2022-08-08T00:42:46.049Z,37.14
2022-08-08T00:45:35.165Z,37.72
2022-08-08T00:48:30.203Z,37.87
2022-08-08T00:51:21.997Z,37.56
2022-08-08T00:54:13.382Z,37.59
2022-08-08T00:56:44.879Z,38.32
2022-08-08T00:59:44.638Z,37.67
2022-08-08T01:03:15.192Z,38.49
2022-08-08T01:05:04.253Z,38.39
2022-08-08T01:07:56.490Z,38.04
2022-08-08T01:10:44.492Z,38.87
2022-08-08T01:13:37.989Z,39.15
2022-08-08T01:16:17.371Z,39.07
2022-08-08T01:18:56.887Z,38.14
2022-08-08T01:22:10.234Z,38.94
2022-08-08T01:24:29.009Z,39.23
2022-08-08T01:26:56.892Z,39.96
2022-08-08T01:29:58.559Z,40.37
2022-08-08T01:32:53.145Z,39.42
2022-08-08T01:35:38.538Z,40.18
2022-08-08T01:38:11.274Z,39.29
2022-08-08T01:40:30.979Z,39.10
2022-08-08T01:42:40.674Z,39.69
2022-08-08T01:45:02.830Z,41.44
2022-08-08T01:48:23.614Z,40.86
2022-08-08T01:49:53.748Z,40.63
2022-08-08T01:52:51.347Z,41.37
2022-08-08T01:55:25.562Z,42.91
2022-08-08T01:57:33.724Z,43.46
2022-08-08T02:00:18.199Z,41.29
2022-08-08T02:02:42.403Z,42.08
2022-08-08T02:04:58.781Z,44.54
2022-08-08T02:07:06.371Z,43.17
2022-08-08T02:10:01.814Z,44.67
2022-08-08T02:12:00.553Z,44.88
2022-08-08T02:14:20.432Z,43.41
2022-08-08T02:16:29.764Z,42.73
2022-08-08T02:18:40.607Z,41.76
2022-08-08T02:21:08.523Z,42.15
2022-08-08T02:23:31.699Z,42.28
2022-08-08T02:25:48.514Z,41.93
2022-08-08T02:28:02.920Z,43.42
2022-08-08T02:30:20.749Z,42.11
2022-08-08T02:32:39.224Z,47.75
2022-08-08T02:35:19.434Z,48.86
2022-08-08T02:37:57.168Z,45.06
2022-08-08T02:40:10.508Z,43.72
2022-08-08T02:42:47.875Z,43.21
2022-08-08T02:45:51.747Z,42.33
2022-08-08T02:48:37.323Z,42.61
2022-08-08T02:51:21.260Z,43.54
2022-08-08T02:53:50.706Z,42.34
2022-08-08T02:56:52.837Z,42.13
2022-08-08T02:59:55.652Z,41.75
2022-08-08T03:02:21.172Z,40.88
2022-08-08T03:05:24.873Z,40.17
2022-08-08T03:08:10.373Z,39.82
2022-08-08T03:10:53.799Z,39.64
2022-08-08T03:16:00.784Z,38.95
2022-08-08T03:16:34.282Z,38.62
2022-08-08T03:18:53.505Z,38.90
2022-08-08T03:20:57.189Z,38.95
2022-08-08T03:23:04.897Z,38.96
2022-08-08T03:25:17.934Z,39.11
2022-08-08T03:27:31.347Z,39.60
2022-08-08T03:29:56.241Z,39.48
2022-08-08T03:32:19.010Z,40.06
2022-08-08T03:34:22.609Z,40.26
2022-08-08T03:36:31.351Z,40.37
2022-08-08T03:38:53.779Z,40.63
2022-08-08T03:42:03.904Z,40.50
2022-08-08T03:43:38.221Z,40.91
2022-08-08T03:46:07.019Z,41.00
2022-08-08T03:48:08.609Z,41.16
2022-08-08T03:50:26.560Z,41.12
2022-08-08T03:52:33.913Z,40.74
2022-08-08T03:54:41.381Z,41.01
2022-08-08T03:58:30.011Z,40.72
2022-08-08T03:59:30.685Z,41.27
2022-08-08T04:02:15.794Z,41.16
2022-08-08T04:04:01.898Z,41.38
2022-08-08T04:06:18.140Z,41.34
2022-08-08T04:08:33.564Z,41.73
2022-08-08T04:10:41.550Z,41.46
2022-08-08T04:12:47.934Z,41.15
2022-08-08T04:14:53.125Z,41.71
2022-08-08T04:16:58.477Z,42.05
2022-08-08T04:19:01.440Z,42.00
2022-08-08T04:21:06.499Z,42.16
2022-08-08T04:23:10.495Z,41.77
2022-08-08T04:25:18.287Z,42.16
2022-08-08T04:28:03.090Z,41.94
2022-08-08T04:30:00.646Z,41.67
2022-08-08T04:32:10.591Z,41.65
2022-08-08T04:34:14.083Z,41.74
2022-08-08T04:36:21.301Z,41.86
2022-08-08T04:38:24.328Z,41.28
2022-08-08T04:40:30.599Z,41.12
2022-08-08T04:42:36.932Z,41.14
2022-08-08T04:44:40.507Z,42.34
2022-08-08T04:46:43.603Z,42.43
2022-08-08T04:48:46.735Z,42.56
2022-08-08T04:50:51.405Z,43.28
2022-08-08T04:53:04.834Z,44.70
2022-08-08T04:55:09.846Z,45.69
2022-08-08T04:57:13.717Z,46.28
2022-08-08T04:59:18.516Z,48.62
2022-08-08T05:01:35.493Z,50.37
2022-08-08T05:04:08.210Z,51.40
2022-08-08T05:06:25.887Z,52.92
2022-08-08T05:08:32.055Z,53.29
2022-08-08T05:10:34.953Z,55.09
2022-08-08T05:12:53.323Z,55.23
2022-08-08T05:15:04.383Z,54.24
2022-08-08T05:17:10.639Z,54.40
2022-08-08T05:20:12.763Z,55.58
2022-08-08T05:21:43.453Z,55.79
2022-08-08T05:24:04.307Z,55.26
2022-08-08T05:26:14.311Z,56.28
2022-08-08T05:28:55.779Z,55.46
2022-08-08T05:30:47.263Z,53.54
2022-08-08T05:32:53.745Z,53.40
2022-08-08T05:35:01.835Z,52.72
2022-08-08T05:37:17.237Z,53.29
2022-08-08T05:39:25.227Z,54.05
2022-08-08T05:41:55.106Z,53.93
2022-08-08T05:44:14.388Z,53.72
2022-08-08T05:46:22.269Z,52.96
2022-08-08T05:48:31.154Z,53.71
2022-08-08T05:50:36.228Z,55.22
2022-08-08T05:52:40.753Z,55.00
2022-08-08T05:54:51.127Z,55.68
2022-08-08T05:56:57.321Z,54.01
2022-08-08T05:59:05.990Z,54.20
2022-08-08T06:01:55.786Z,55.77
2022-08-08T06:03:43.807Z,55.59
2022-08-08T06:05:59.245Z,56.11
2022-08-08T06:08:20.389Z,61.24
2022-08-08T06:10:29.942Z,62.56
2022-08-08T06:12:33.956Z,63.49
2022-08-08T06:14:38.149Z,63.25
2022-08-08T06:16:52.453Z,63.69
2022-08-08T06:19:07.325Z,62.98
2022-08-08T06:21:28.389Z,61.75
2022-08-08T06:23:52.948Z,60.43
2022-08-08T06:26:38.766Z,60.00
2022-08-08T06:28:33.155Z,59.56
2022-08-08T06:30:37.817Z,57.74
2022-08-08T06:32:47.517Z,56.06
2022-08-08T06:35:12.140Z,54.13
2022-08-08T06:37:25.914Z,55.34
2022-08-08T06:39:35.748Z,54.80
2022-08-08T06:42:02.629Z,55.57
2022-08-08T06:44:18.752Z,55.12
2022-08-08T06:46:31.912Z,54.38
2022-08-08T06:48:36.701Z,53.77
2022-08-08T06:50:42.927Z,53.36
2022-08-08T06:52:50.451Z,53.05
2022-08-08T06:54:58.482Z,52.58
2022-08-08T06:57:02.367Z,52.96
2022-08-08T06:59:12.064Z,52.13
2022-08-08T07:02:17.564Z,52.41
2022-08-08T07:04:37.863Z,52.28
2022-08-08T07:06:23.437Z,53.14
2022-08-08T07:08:34.686Z,53.33
2022-08-08T07:10:44.569Z,53.72
2022-08-08T07:12:55.288Z,55.34
2022-08-08T07:15:11.449Z,55.74
2022-08-08T07:17:56.820Z,54.92
2022-08-08T07:20:07.598Z,54.67
2022-08-08T07:22:25.108Z,53.82
2022-08-08T07:24:34.351Z,53.69
2022-08-08T07:26:41.129Z,54.53
2022-08-08T07:28:46.637Z,56.19
2022-08-08T07:30:50.491Z,55.26
2022-08-08T07:32:54.756Z,55.46
2022-08-08T07:35:08.441Z,55.73
2022-08-08T07:37:18.485Z,54.36
2022-08-08T07:39:29.828Z,54.66
2022-08-08T07:42:03.817Z,53.88
2022-08-08T07:44:33.503Z,53.82
2022-08-08T07:46:32.535Z,54.93
2022-08-08T07:48:42.094Z,54.56
2022-08-08T07:50:47.432Z,55.07
2022-08-08T07:52:57.294Z,54.33
2022-08-08T07:55:05.525Z,54.40
2022-08-08T07:57:23.892Z,54.32
2022-08-08T07:59:37.431Z,53.61
2022-08-08T08:02:34.430Z,53.69
2022-08-08T08:04:16.257Z,53.94
2022-08-08T08:06:22.085Z,54.66
2022-08-08T08:08:39.162Z,54.72
2022-08-08T08:10:47.172Z,54.50
2022-08-08T08:12:54.919Z,53.55
2022-08-08T08:15:05.034Z,54.09
2022-08-08T08:17:13.946Z,53.67
2022-08-08T08:19:17.949Z,53.59
2022-08-08T08:21:44.140Z,53.74
2022-08-08T08:23:53.865Z,52.38
2022-08-08T08:26:06.148Z,52.40
2022-08-08T08:28:09.374Z,52.38
2022-08-08T08:30:13.963Z,51.20
2022-08-08T08:32:32.010Z,50.88
2022-08-08T08:34:43.067Z,50.70
2022-08-08T08:36:51.488Z,50.25
2022-08-08T08:39:00.324Z,49.52
2022-08-08T08:41:16.858Z,49.14
2022-08-08T08:43:26.782Z,48.99
2022-08-08T08:45:33.213Z,48.27
2022-08-08T08:47:43.937Z,47.58
2022-08-08T08:49:48.281Z,47.53
2022-08-08T08:51:52.733Z,46.57
2022-08-08T08:53:59.761Z,46.00
2022-08-08T08:56:11.288Z,45.35
2022-08-08T08:58:25.361Z,45.24
2022-08-08T09:00:44.569Z,44.77
2022-08-08T09:02:53.681Z,43.88
2022-08-08T09:05:00.193Z,43.97
2022-08-08T09:07:12.218Z,42.50
2022-08-08T09:09:36.189Z,43.35
2022-08-08T09:12:02.143Z,42.81
2022-08-08T09:14:12.311Z,42.83
2022-08-08T09:16:17.138Z,41.99
2022-08-08T09:18:21.473Z,41.79
2022-08-08T09:22:02.794Z,40.95
2022-08-08T09:22:55.304Z,40.18
2022-08-08T09:25:02.784Z,40.99
2022-08-08T09:27:20.412Z,41.00
2022-08-08T09:29:28.207Z,39.48
2022-08-08T09:31:57.049Z,40.44
2022-08-08T09:34:31.037Z,40.37
2022-08-08T09:36:33.697Z,40.64
2022-08-08T09:38:52.544Z,38.45
2022-08-08T09:41:00.752Z,38.90
2022-08-08T09:43:16.887Z,37.60
2022-08-08T09:46:01.895Z,38.08
2022-08-08T09:48:03.817Z,37.60
2022-08-08T09:50:14.381Z,37.31
2022-08-08T09:52:57.490Z,35.60
2022-08-08T09:54:47.384Z,35.11
2022-08-08T09:56:56.286Z,35.00
2022-08-08T09:59:15.201Z,34.47
2022-08-08T10:01:59.072Z,34.73
2022-08-08T10:03:56.311Z,33.85
2022-08-08T10:06:00.946Z,33.45
2022-08-08T10:08:04.810Z,33.45
2022-08-08T10:10:12.774Z,34.32
2022-08-08T10:12:26.756Z,32.57
2022-08-08T10:14:41.019Z,32.12
2022-08-08T10:16:46.901Z,31.21
2022-08-08T10:19:03.914Z,31.75
2022-08-08T10:21:24.966Z,31.08
2022-08-08T10:23:44.058Z,30.33
2022-08-08T10:25:57.119Z,29.74
2022-08-08T10:28:00.848Z,29.23
2022-08-08T10:30:07.999Z,31.01
2022-08-08T10:32:50.721Z,30.61
2022-08-08T10:35:01.285Z,29.60
2022-08-08T10:37:05.475Z,29.34
2022-08-08T10:39:10.180Z,29.89
2022-08-08T10:41:19.973Z,29.09
2022-08-08T10:43:24.624Z,29.72
2022-08-08T10:45:56.168Z,29.25
2022-08-08T10:48:02.112Z,29.19
2022-08-08T10:50:07.091Z,29.93
2022-08-08T10:52:09.883Z,29.52
2022-08-08T10:54:20.522Z,29.30
2022-08-08T10:56:27.708Z,29.64
2022-08-08T10:58:35.473Z,29.33
2022-08-08T11:00:52.650Z,29.49
2022-08-08T11:03:15.708Z,28.55
2022-08-08T11:05:19.617Z,29.22
2022-08-08T11:08:31.394Z,29.23
2022-08-08T11:09:52.898Z,29.64
2022-08-08T11:12:05.507Z,29.18
2022-08-08T11:14:16.690Z,29.10
2022-08-08T11:16:32.340Z,29.61
2022-08-08T11:18:37.376Z,29.10
2022-08-08T11:20:41.853Z,28.30
2022-08-08T11:22:56.557Z,28.33
2022-08-08T11:25:02.048Z,29.18
2022-08-08T11:27:19.624Z,29.67
2022-08-08T11:29:29.369Z,28.79
2022-08-08T11:31:50.112Z,29.03
2022-08-08T11:34:03.280Z,28.99
2022-08-08T11:36:19.954Z,28.88
2022-08-08T11:38:35.184Z,28.73
2022-08-08T11:40:41.762Z,27.84
2022-08-08T11:42:45.367Z,27.92
2022-08-08T11:44:49.452Z,26.99
2022-08-08T11:46:57.757Z,27.40
2022-08-08T11:49:04.185Z,26.22
2022-08-08T11:51:30.632Z,27.56
2022-08-08T11:53:31.861Z,28.50
2022-08-08T11:55:49.757Z,29.06
2022-08-08T11:58:06.834Z,28.61
2022-08-08T12:00:18.887Z,26.34
2022-08-08T12:02:41.941Z,26.22
2022-08-08T12:04:48.444Z,26.14
2022-08-08T12:06:51.295Z,25.57
2022-08-08T12:09:06.325Z,24.29
2022-08-08T12:11:12.745Z,24.94
2022-08-08T12:13:33.281Z,24.44
2022-08-08T12:15:48.220Z,24.04
2022-08-08T12:17:53.589Z,23.08
2022-08-08T12:19:58.508Z,22.96
2022-08-08T12:22:09.434Z,24.01
2022-08-08T12:24:19.362Z,23.71
2022-08-08T12:26:28.326Z,24.02
2022-08-08T12:28:38.828Z,24.53
2022-08-08T12:30:42.002Z,23.60
2022-08-08T12:32:50.857Z,23.77
2022-08-08T12:35:13.575Z,23.10
2022-08-08T12:37:22.653Z,22.38
2022-08-08T12:40:00.651Z,23.32
2022-08-08T12:42:05.893Z,23.98
2022-08-08T12:44:32.342Z,24.44
2022-08-08T12:46:36.499Z,24.63
2022-08-08T12:48:39.288Z,24.98
2022-08-08T12:50:47.068Z,24.30
2022-08-08T12:52:54.785Z,23.75
2022-08-08T12:55:13.254Z,23.36
2022-08-08T12:57:17.728Z,23.80
2022-08-08T12:59:27.250Z,24.61
2022-08-08T13:01:39.522Z,24.24
2022-08-08T13:03:49.102Z,23.36
2022-08-08T13:06:13.921Z,22.76
2022-08-08T13:08:18.131Z,22.13
2022-08-08T13:10:21.111Z,22.48
2022-08-08T13:12:33.578Z,22.90
2022-08-08T13:14:38.863Z,23.37
2022-08-08T13:16:56.530Z,23.69
2022-08-08T13:19:11.757Z,24.61
2022-08-08T13:21:17.068Z,23.91
2022-08-08T13:23:31.414Z,23.27
2022-08-08T13:25:40.211Z,23.37
2022-08-08T13:27:43.346Z,23.58
2022-08-08T13:29:51.364Z,24.12
2022-08-08T13:31:55.747Z,23.00
2022-08-08T13:33:59.918Z,22.41
2022-08-08T13:36:10.773Z,23.44
2022-08-08T13:38:20.819Z,23.74
2022-08-08T13:40:26.747Z,23.78
2022-08-08T13:42:31.303Z,22.37
2022-08-08T13:44:34.248Z,22.09
2022-08-08T13:46:53.328Z,22.25
2022-08-08T13:50:32.144Z,22.19
2022-08-08T13:51:33.454Z,22.63
2022-08-08T13:53:53.382Z,22.38
2022-08-08T13:56:06.943Z,22.50
2022-08-08T13:58:20.090Z,22.10
2022-08-08T14:00:23.894Z,22.61
2022-08-08T14:02:31.211Z,21.82
2022-08-08T14:04:37.514Z,21.85
2022-08-08T14:06:59.485Z,23.02
2022-08-08T14:09:25.228Z,22.54
2022-08-08T14:11:28.284Z,21.85
2022-08-08T14:13:34.174Z,22.17
2022-08-08T14:15:39.762Z,21.98
2022-08-08T14:17:59.275Z,21.79
2022-08-08T14:20:56.831Z,22.71
2022-08-08T14:22:43.895Z,24.19
2022-08-08T14:24:53.419Z,23.17
2022-08-08T14:26:56.703Z,23.28
2022-08-08T14:29:01.479Z,24.39
2022-08-08T14:31:10.503Z,22.97
2022-08-08T14:33:15.179Z,22.74
2022-08-08T14:35:20.060Z,21.96
2022-08-08T14:37:27.934Z,21.73
2022-08-08T14:39:53.765Z,21.07
2022-08-08T14:42:03.393Z,21.27
2022-08-08T14:44:19.538Z,21.06
2022-08-08T14:46:31.117Z,20.52
2022-08-08T14:48:52.568Z,20.96
2022-08-08T14:51:06.538Z,20.44
2022-08-08T14:53:13.463Z,20.19
2022-08-08T14:55:22.768Z,20.51
2022-08-08T14:58:06.296Z,21.20
2022-08-08T15:00:06.696Z,21.75
2022-08-08T15:02:15.249Z,21.12
2022-08-08T15:04:18.742Z,20.99
2022-08-08T15:06:22.417Z,20.39
2022-08-08T15:08:34.273Z,20.13
2022-08-08T15:10:40.131Z,20.13
2022-08-08T15:12:46.917Z,19.95
2022-08-08T15:14:49.761Z,19.88
2022-08-08T15:16:52.655Z,19.20
2022-08-08T15:18:55.429Z,19.28
2022-08-08T15:20:58.264Z,19.98
2022-08-08T15:23:01.604Z,19.66
2022-08-08T15:25:08.634Z,19.71
2022-08-08T15:28:03.460Z,19.75
2022-08-08T15:29:44.112Z,19.12
2022-08-08T15:32:19.001Z,18.85
2022-08-08T15:34:28.990Z,18.64
2022-08-08T15:36:34.045Z,18.78
2022-08-08T15:38:40.613Z,18.48
2022-08-08T15:40:52.500Z,18.58
2022-08-08T15:42:56.844Z,18.25
2022-08-08T15:45:01.056Z,18.69
2022-08-08T15:47:04.473Z,17.85
2022-08-08T15:49:07.236Z,17.89
2022-08-08T15:51:15.650Z,18.06
2022-08-08T15:53:20.679Z,18.22
2022-08-08T15:55:23.915Z,17.73
2022-08-08T15:57:26.683Z,17.53
2022-08-08T16:00:06.015Z,17.83
2022-08-08T16:02:03.281Z,18.15
2022-08-08T16:04:06.571Z,17.93
2022-08-08T16:06:28.213Z,17.64
2022-08-08T16:08:31.785Z,17.62
2022-08-08T16:13:15.269Z,17.94
2022-08-08T16:13:26.697Z,17.53
2022-08-08T16:15:23.362Z,17.56
2022-08-08T16:17:38.744Z,17.49
2022-08-08T16:19:56.852Z,17.04
2022-08-08T16:22:03.116Z,17.27
2022-08-08T16:24:07.802Z,17.36
2022-08-08T16:26:19.180Z,17.60
2022-08-08T16:28:34.970Z,17.24
2022-08-08T16:30:40.247Z,17.34
2022-08-08T16:32:43.254Z,17.11
2022-08-08T16:34:51.304Z,17.09
2022-08-08T16:36:54.101Z,17.07
2022-08-08T16:38:57.813Z,17.04
2022-08-08T16:41:02.631Z,16.96
2022-08-08T16:43:05.521Z,16.72
2022-08-08T16:45:11.558Z,16.59
2022-08-08T16:47:42.281Z,16.71
2022-08-08T16:49:47.839Z,16.74
2022-08-08T16:55:04.076Z,16.57
2022-08-08T16:55:04.913Z,16.43
2022-08-08T16:56:38.504Z,16.81
2022-08-08T16:59:01.242Z,16.38
2022-08-08T17:01:10.724Z,16.67
2022-08-08T17:03:15.373Z,16.42
2022-08-08T17:05:20.922Z,17.00
2022-08-08T17:07:24.688Z,16.43
2022-08-08T17:09:34.825Z,16.48
2022-08-08T17:11:48.795Z,17.06
2022-08-08T17:14:00.944Z,16.72
2022-08-08T17:16:05.231Z,16.61
2022-08-08T17:18:19.409Z,16.76
2022-08-08T17:20:22.661Z,16.78
2022-08-08T17:22:39.148Z,17.20
2022-08-08T17:24:53.876Z,17.01
2022-08-08T17:26:57.987Z,17.24
2022-08-08T17:29:04.371Z,17.31
2022-08-08T17:31:39.075Z,16.93
2022-08-08T17:34:36.835Z,17.04
2022-08-08T17:36:10.085Z,16.92
2022-08-08T17:38:16.686Z,17.52
2022-08-08T17:40:19.559Z,17.25
2022-08-08T17:42:22.615Z,17.61
2022-08-08T17:44:27.014Z,17.27
2022-08-08T17:46:41.127Z,17.17
2022-08-08T17:48:45.249Z,17.56
2022-08-08T17:50:50.704Z,17.62
2022-08-08T17:52:53.935Z,17.67
2022-08-08T17:55:00.548Z,17.68
2022-08-08T17:57:09.556Z,17.83
2022-08-08T17:59:12.569Z,17.65
2022-08-08T18:01:15.278Z,18.25
2022-08-08T18:03:38.343Z,18.74
2022-08-08T18:05:48.588Z,18.50
2022-08-08T18:08:24.950Z,18.95
2022-08-08T18:10:15.817Z,19.63
2022-08-08T18:12:18.638Z,20.66
2022-08-08T18:14:23.960Z,21.70
2022-08-08T18:16:31.137Z,22.81
2022-08-08T18:18:38.673Z,23.73
2022-08-08T18:20:55.313Z,25.45
2022-08-08T18:23:02.939Z,26.55
2022-08-08T18:25:06.445Z,27.07
2022-08-08T18:27:17.216Z,27.03
2022-08-08T18:29:25.778Z,27.78
2022-08-08T18:31:32.537Z,28.63
2022-08-08T18:34:10.342Z,29.02
2022-08-08T18:36:03.025Z,29.37
2022-08-08T18:38:17.334Z,29.34
2022-08-08T18:40:34.789Z,29.31
2022-08-08T18:42:37.852Z,29.72
2022-08-08T18:44:54.952Z,31.02
2022-08-08T18:47:00.036Z,30.53
2022-08-08T18:49:03.568Z,30.40
2022-08-08T18:51:33.454Z,30.62
2022-08-08T18:54:02.694Z,31.24
2022-08-08T18:55:57.185Z,31.58
2022-08-08T18:57:59.997Z,31.67
2022-08-08T19:00:03.024Z,32.01
2022-08-08T19:02:27.761Z,32.61
2022-08-08T19:04:28.995Z,33.54
2022-08-08T19:06:33.886Z,34.27
2022-08-08T19:08:37.846Z,34.49
2022-08-08T19:10:44.456Z,34.15
2022-08-08T19:12:53.154Z,34.87
2022-08-08T19:14:56.575Z,35.13
2022-08-08T19:16:59.515Z,35.21
2022-08-08T19:19:09.644Z,35.10
2022-08-08T19:21:29.236Z,35.20
2022-08-08T19:23:37.030Z,34.67
2022-08-08T19:26:19.834Z,34.73
2022-08-08T19:28:18.064Z,35.40
2022-08-08T19:30:24.474Z,35.72
2022-08-08T19:32:29.184Z,35.47
2022-08-08T19:34:38.749Z,34.67
2022-08-08T19:36:45.455Z,35.09
2022-08-08T19:38:51.393Z,34.36
2022-08-08T19:40:56.061Z,35.30
2022-08-08T19:42:59.699Z,35.10
2022-08-08T19:45:07.271Z,34.63
2022-08-08T19:47:12.473Z,35.51
2022-08-08T19:49:15.687Z,36.20
2022-08-08T19:51:24.856Z,35.95
2022-08-08T19:53:51.883Z,35.62
2022-08-08T19:55:58.365Z,36.20
2022-08-08T19:58:02.404Z,35.74
2022-08-08T20:00:11.037Z,34.14
2022-08-08T20:02:32.348Z,35.05
2022-08-08T20:04:35.500Z,34.88
2022-08-08T20:06:38.355Z,36.12
2022-08-08T20:08:48.147Z,34.99
2022-08-08T20:10:51.561Z,35.12
2022-08-08T20:13:11.335Z,35.38
2022-08-08T20:15:19.247Z,34.77
2022-08-08T20:17:27.823Z,35.67
2022-08-08T20:19:34.185Z,36.47
2022-08-08T20:21:38.433Z,34.42
2022-08-08T20:23:41.378Z,34.56
2022-08-08T20:25:44.417Z,35.03
2022-08-08T20:27:50.217Z,34.42
2022-08-08T20:30:00.912Z,35.14
2022-08-08T20:32:09.964Z,35.32
2022-08-08T20:34:29.014Z,36.11
2022-08-08T20:36:35.260Z,36.00
2022-08-08T20:38:41.635Z,35.44
2022-08-08T20:40:51.209Z,36.40
2022-08-08T20:42:56.090Z,35.03
2022-08-08T20:45:00.287Z,34.96
2022-08-08T20:47:03.673Z,35.56
2022-08-08T20:49:07.308Z,35.58
2022-08-08T20:51:14.438Z,35.01
2022-08-08T20:53:57.841Z,34.70
2022-08-08T20:55:42.585Z,36.23
2022-08-08T20:57:47.785Z,35.30
2022-08-08T20:59:54.548Z,34.80
2022-08-08T21:02:07.782Z,35.45
2022-08-08T21:04:14.197Z,35.57
2022-08-08T21:06:17.178Z,34.59
2022-08-08T21:08:37.167Z,35.61
2022-08-08T21:10:42.763Z,34.47
2022-08-08T21:12:48.423Z,34.17
2022-08-08T21:14:56.956Z,35.32
2022-08-08T21:17:06.781Z,35.22
2022-08-08T21:19:10.954Z,34.16
2022-08-08T21:21:19.790Z,34.74
2022-08-08T21:24:02.633Z,35.03
2022-08-08T21:26:00.899Z,35.05
2022-08-08T21:28:09.819Z,34.69
2022-08-08T21:30:22.055Z,35.41
2022-08-08T21:32:26.563Z,35.23
2022-08-08T21:34:29.989Z,35.01
2022-08-08T21:36:33.209Z,35.69
2022-08-08T21:38:36.189Z,36.25
2022-08-08T21:40:39.244Z,35.83
2022-08-08T21:42:58.248Z,36.02
2022-08-08T21:45:44.425Z,35.71
2022-08-08T21:48:04.362Z,35.29
2022-08-08T21:49:47.882Z,35.06
2022-08-08T21:54:31.636Z,34.51
2022-08-08T21:54:53.842Z,35.72
2022-08-08T21:56:42.126Z,35.66
2022-08-08T21:58:46.383Z,35.74
2022-08-08T22:00:57.608Z,35.67
2022-08-08T22:03:07.125Z,36.64
2022-08-08T22:05:11.890Z,35.93
2022-08-08T22:07:17.818Z,36.60
2022-08-08T22:09:26.840Z,36.46
2022-08-08T22:12:02.274Z,36.00
2022-08-08T22:14:03.039Z,36.28
2022-08-08T22:16:09.883Z,35.86
2022-08-08T22:18:12.728Z,35.72
2022-08-08T22:20:23.430Z,36.44
2022-08-08T22:22:29.185Z,35.65
2022-08-08T22:24:33.662Z,36.20
2022-08-08T22:27:02.684Z,35.93
2022-08-08T22:29:14.756Z,35.57
2022-08-08T22:31:26.450Z,35.79
2022-08-08T22:34:12.339Z,35.44
2022-08-08T22:36:04.675Z,36.02
2022-08-08T22:38:17.799Z,35.82
2022-08-08T22:40:20.832Z,35.82
2022-08-08T22:42:31.451Z,35.89
2022-08-08T22:44:35.036Z,35.71
2022-08-08T22:46:39.809Z,35.82
2022-08-08T22:48:45.523Z,36.20
2022-08-08T22:50:48.414Z,36.32
2022-08-08T22:54:23.809Z,36.05
2022-08-08T22:55:16.390Z,36.90
2022-08-08T22:57:19.145Z,37.24
2022-08-08T22:59:21.897Z,36.91
2022-08-08T23:02:01.800Z,36.71
2022-08-08T23:03:53.672Z,36.70
2022-08-08T23:06:00.098Z,36.47
2022-08-08T23:08:04.721Z,36.73
2022-08-08T23:10:09.735Z,36.70
2022-08-08T23:12:28.897Z,36.90
2022-08-08T23:14:35.210Z,37.23
2022-08-08T23:16:43.542Z,37.31
2022-08-08T23:18:47.101Z,37.24
2022-08-08T23:20:54.769Z,37.15
2022-08-08T23:22:58.360Z,37.05
2022-08-08T23:25:03.866Z,37.10
2022-08-08T23:27:07.641Z,37.18
2022-08-08T23:29:10.933Z,37.02
2022-08-08T23:31:14.040Z,37.70
2022-08-08T23:33:35.944Z,37.60
2022-08-08T23:36:07.489Z,38.29
2022-08-08T23:38:04.807Z,38.39
2022-08-08T23:40:10.500Z,38.07
2022-08-08T23:42:13.419Z,38.06
2022-08-08T23:44:16.196Z,37.83
2022-08-08T23:49:02.104Z,37.78
2022-08-08T23:49:04.917Z,37.56
2022-08-08T23:51:12.909Z,37.56
2022-08-08T23:54:05.169Z,37.69
2022-08-08T23:55:54.732Z,37.69
2022-08-08T23:58:01.815Z,37.86
